Main page
METAR-TAF:

METAR-TAF

Airports :

Friedrichshafen, Germany

Friedrichshafen Airport

latitude: 47-40N, longitude: 009-31E, elevation: 416 m

Current weather observation

The report was made 20 minutes ago, at 02:20 UTC
Wind 13 kt from the West/Southwest
Temperature 14°C
Humidity 88%
Pressure 1010 hPa
Visibility 10 km or more
Scattered clouds at a height of 1300 ft
Broken clouds at a height of 4200 ft
light rain

METAR: EDNY 260220Z AUTO 25013KT 9999 -RA SCT013 BKN042 14/12 Q1010

Time: 04:40 (02:40 UTC)

Forecast

The report was made 3 hours and 40 minutes ago, at 23:00 UTC
Forecast valid from 26 at 00 UTC to 26 at 24 UTC
Wind 10 kt from the West/Southwest
Visibility 10 km or more
Few clouds at a height of 900 ft
Overcast at a height of 4000 ft
Temporary
from 26 at 00 UTC to 26 at 14 UTC
Broken clouds at a height of 900 ft
rain
Becoming
from 26 at 16 UTC to 26 at 18 UTC
Wind 5 kt from the Southwest

TAF: EDNY 252300Z 2600/2624 25010KT 9999 FEW009 OVC040 TEMPO 2600/2614 RA BKN009 BECMG 2616/2618 22005KT

Weather observations and forecasts of more than 4000 airports (METAR and TAF reports).

The available stations are represented by yellow and red dots on the map.

Hover mouse over dot to see the name of the station.

Then click to see weather observations and forecasts.

To change the map : click on the green buttons with a black cross to zoom in, on the green button with a dash to zoom out, or on the green arrows for adjacent maps.


METAR-TAF: